Time;durP1;ratioP1;P1;durP2;ratioP2;P2;SDS_P1;SDS_P2;PMS_P1;PMS_P2;Temp;Humidity;BMP_temperature;BMP_pressure;BME280_temperature;BME280_humidity;BME280_pressure;Samples;Min_cycle;Max_cycle;Signal;HPM_P1;HPM_P2
2022/08/10 00:00:34;;;;;;;6.38;4.53;;;17.40;99.90;;;;;;5077195;28;20029;-59
2022/08/10 00:03:00;;;;;;;7.93;4.63;;;17.40;99.90;;;;;;5077583;28;20040;-58
2022/08/10 00:05:27;;;;;;;7.10;4.30;;;17.30;99.90;;;;;;5077384;28;20391;-58
2022/08/10 00:07:54;;;;;;;4.85;4.22;;;17.30;99.90;;;;;;5076163;28;20044;-58
2022/08/10 00:10:21;;;;;;;5.03;3.88;;;17.30;99.90;;;;;;5077319;28;20041;-58
2022/08/10 00:12:47;;;;;;;7.47;4.85;;;17.30;99.90;;;;;;5077149;28;20159;-58
2022/08/10 00:15:16;;;;;;;6.45;4.72;;;17.30;99.90;;;;;;5077200;28;20098;-58
2022/08/10 00:17:42;;;;;;;;;;;17.30;99.90;;;;;;5077389;28;20040;-59
2022/08/10 00:20:08;;;;;;;13.45;5.60;;;17.30;99.90;;;;;;5077269;28;19917;-59
2022/08/10 00:22:34;;;;;;;10.30;5.82;;;17.30;99.90;;;;;;5076947;28;20521;-58
2022/08/10 00:25:00;;;;;;;7.78;5.72;;;17.30;99.90;;;;;;5076673;28;20049;-58
2022/08/10 00:27:27;;;;;;;7.28;5.72;;;17.30;99.90;;;;;;5077080;28;20459;-58
2022/08/10 00:29:53;;;;;;;9.98;6.53;;;17.20;99.90;;;;;;5076718;28;20033;-58
2022/08/10 00:32:18;;;;;;;10.30;6.40;;;17.20;99.90;;;;;;5076864;28;20376;-58
2022/08/10 00:34:44;;;;;;;8.13;6.30;;;17.20;99.90;;;;;;5076963;28;20435;-58
2022/08/10 00:37:11;;;;;;;8.35;7.32;;;17.20;99.90;;;;;;5076920;28;20040;-58
2022/08/10 00:39:37;;;;;;;12.02;7.30;;;17.20;99.90;;;;;;5076923;28;20028;-59
2022/08/10 00:42:05;;;;;;;10.35;7.50;;;17.20;99.90;;;;;;5076721;28;20044;-59
2022/08/10 00:44:31;;;;;;;10.35;7.80;;;17.20;99.90;;;;;;5076724;28;20083;-59
2022/08/10 00:46:59;;;;;;;10.15;7.13;;;17.20;99.90;;;;;;5076740;28;20040;-59
2022/08/10 00:49:26;;;;;;;10.43;7.43;;;17.10;99.90;;;;;;5076600;28;20044;-59
2022/08/10 00:51:52;;;;;;;8.20;7.00;;;17.20;99.90;;;;;;5076883;28;20123;-58
2022/08/10 00:54:18;;;;;;;11.02;7.70;;;17.10;99.90;;;;;;5076612;28;20047;-59
2022/08/10 00:56:44;;;;;;;8.68;7.65;;;17.10;99.90;;;;;;5076319;28;20498;-59
2022/08/10 00:59:10;;;;;;;11.02;7.78;;;17.10;99.90;;;;;;5076474;28;20075;-58
2022/08/10 01:01:36;;;;;;;9.02;7.20;;;17.10;99.90;;;;;;5076350;28;20048;-58
2022/08/10 01:04:03;;;;;;;10.32;8.13;;;17.10;99.90;;;;;;5074908;28;20080;-58
2022/08/10 01:06:32;;;;;;;9.50;7.53;;;17.20;99.90;;;;;;5076371;28;20037;-58
2022/08/10 01:09:10;;;;;;;9.27;7.88;;;17.10;99.90;;;;;;5074114;28;20052;-59
2022/08/10 01:11:49;;;;;;;11.02;8.13;;;17.10;99.90;;;;;;5076170;28;20371;-58
2022/08/10 01:14:34;;;;;;;10.35;7.30;;;17.10;99.90;;;;;;5076254;28;20490;-59
2022/08/10 01:17:05;;;;;;;10.73;7.63;;;17.10;99.90;;;;;;5076165;28;20047;-58
2022/08/10 01:19:49;;;;;;;9.80;7.00;;;17.10;99.90;;;;;;5075857;28;20039;-58
2022/08/10 01:22:47;;;;;;;8.48;7.30;;;17.00;99.90;;;;;;5076028;28;20457;-58
2022/08/10 01:25:12;;;;;;;9.65;7.15;;;17.10;99.90;;;;;;5075955;28;20041;-59
2022/08/10 01:28:15;;;;;;;11.25;6.90;;;17.10;99.90;;;;;;5075749;28;20044;-59
2022/08/10 01:30:44;;;;;;;9.35;5.95;;;17.10;99.90;;;;;;5075944;28;20032;-58
2022/08/10 01:33:17;;;;;;;9.00;6.22;;;17.00;99.90;;;;;;5075774;28;20040;-58
2022/08/10 01:35:46;;;;;;;9.52;6.93;;;17.00;99.90;;;;;;5075815;28;20128;-59
2022/08/10 01:38:28;;;;;;;9.23;6.97;;;17.00;99.90;;;;;;5075805;28;20391;-59
2022/08/10 01:41:05;;;;;;;8.32;6.70;;;17.00;99.90;;;;;;5075724;28;20036;-58
2022/08/10 01:43:35;;;;;;;7.38;6.07;;;17.00;99.90;;;;;;5075629;28;20387;-57
2022/08/10 01:46:03;;;;;;;8.95;6.60;;;17.00;99.90;;;;;;5075406;28;20079;-57
2022/08/10 01:48:37;;;;;;;8.82;6.82;;;17.00;99.90;;;;;;5075577;28;20041;-57
2022/08/10 01:51:25;;;;;;;8.52;6.30;;;17.00;99.90;;;;;;5075459;28;20037;-57
2022/08/10 01:54:00;;;;;;;7.78;6.93;;;16.90;99.90;;;;;;5074069;28;20044;-57
2022/08/10 01:56:30;;;;;;;10.88;6.60;;;16.90;99.90;;;;;;5075465;28;20048;-57
2022/08/10 01:58:59;;;;;;;9.07;6.85;;;16.90;99.90;;;;;;5075240;28;20033;-58
2022/08/10 02:01:29;;;;;;;8.38;6.85;;;16.90;99.90;;;;;;5075200;28;20107;-57
2022/08/10 02:04:01;;;;;;;9.20;6.95;;;16.90;99.90;;;;;;5075208;28;20070;-57
2022/08/10 02:06:28;;;;;;;9.00;7.25;;;16.90;99.90;;;;;;5075481;28;20120;-58
2022/08/10 02:08:56;;;;;;;8.93;6.40;;;16.90;99.90;;;;;;5075209;28;20036;-58
2022/08/10 02:11:23;;;;;;;11.43;6.63;;;16.90;99.90;;;;;;5074937;28;20471;-58
2022/08/10 02:13:49;;;;;;;10.63;7.40;;;16.80;99.90;;;;;;5075014;28;20115;-57
2022/08/10 02:16:17;;;;;;;12.63;7.70;;;16.80;99.90;;;;;;5074722;28;20107;-57
2022/08/10 02:18:44;;;;;;;10.63;7.35;;;16.80;99.90;;;;;;5074958;28;20043;-58
2022/08/10 02:21:10;;;;;;;9.18;7.13;;;16.80;99.90;;;;;;5074745;28;20047;-57
2022/08/10 02:23:38;;;;;;;8.88;7.00;;;16.80;99.90;;;;;;5074377;28;20503;-57
2022/08/10 02:26:07;;;;;;;11.05;7.40;;;16.80;99.90;;;;;;5074849;28;20049;-58
2022/08/10 02:28:35;;;;;;;8.77;6.82;;;16.70;99.90;;;;;;5074521;28;20036;-58
2022/08/10 02:31:15;;;;;;;11.13;7.43;;;16.70;99.90;;;;;;5074765;28;20072;-58
2022/08/10 02:33:44;;;;;;;9.00;7.25;;;16.70;99.90;;;;;;5074663;28;20036;-58
2022/08/10 02:36:10;;;;;;;;;;;16.70;99.90;;;;;;5074844;28;20043;-59
2022/08/10 02:38:54;;;;;;;8.98;7.25;;;16.80;99.90;;;;;;5074694;28;20002;-59
2022/08/10 02:41:37;;;;;;;8.90;8.00;;;16.70;99.90;;;;;;5074426;28;20040;-59
2022/08/10 02:44:28;;;;;;;8.60;6.93;;;16.70;99.90;;;;;;5074379;28;20041;-59
2022/08/10 02:47:01;;;;;;;11.15;7.35;;;16.80;99.90;;;;;;5074444;28;20048;-58
2022/08/10 02:49:35;;;;;;;7.97;7.18;;;16.70;99.90;;;;;;5074302;28;20052;-58
2022/08/10 02:52:06;;;;;;;11.10;7.53;;;16.80;99.90;;;;;;5074334;28;20052;-58
2022/08/10 02:54:37;;;;;;;7.82;6.85;;;16.70;99.90;;;;;;5074496;28;20055;-58
2022/08/10 02:57:19;;;;;;;12.45;7.70;;;16.80;99.90;;;;;;5074167;28;20040;-58
2022/08/10 02:59:49;;;;;;;9.63;7.38;;;16.70;99.90;;;;;;5074183;28;20052;-57
2022/08/10 03:02:23;;;;;;;8.48;7.57;;;16.80;99.90;;;;;;5073915;28;20048;-58
2022/08/10 03:04:55;;;;;;;11.05;7.53;;;16.70;99.90;;;;;;5074039;28;20098;-58
2022/08/10 03:07:24;;;;;;;11.55;7.72;;;16.70;99.90;;;;;;5074131;28;20051;-58
2022/08/10 03:09:52;;;;;;;12.90;7.32;;;16.70;99.90;;;;;;5074082;28;20036;-58
2022/08/10 03:12:19;;;;;;;9.18;7.00;;;16.70;99.90;;;;;;5073802;28;20032;-58
2022/08/10 03:14:45;;;;;;;9.82;7.53;;;16.70;99.90;;;;;;5074045;28;20119;-58
2022/08/10 03:17:12;;;;;;;9.75;6.82;;;16.70;99.90;;;;;;5073802;28;20505;-58
2022/08/10 03:19:39;;;;;;;10.63;8.20;;;16.80;99.90;;;;;;5073948;28;20050;-58
2022/08/10 03:22:06;;;;;;;11.93;8.15;;;16.60;99.90;;;;;;5073605;28;20093;-58
2022/08/10 03:24:33;;;;;;;10.80;7.47;;;16.80;99.90;;;;;;5073478;28;20092;-58
2022/08/10 03:26:59;;;;;;;9.27;7.68;;;16.70;99.90;;;;;;5073851;28;20048;-58
2022/08/10 03:29:25;;;;;;;12.00;8.38;;;16.70;99.90;;;;;;5073891;28;20059;-58
2022/08/10 03:31:51;;;;;;;11.13;8.02;;;16.70;99.90;;;;;;5073781;28;20387;-59
2022/08/10 03:34:19;;;;;;;9.30;8.35;;;16.60;99.90;;;;;;5073684;28;20040;-58
2022/08/10 03:36:44;;;;;;;12.20;8.18;;;16.70;99.90;;;;;;5073587;28;20502;-58
2022/08/10 03:39:11;;;;;;;13.73;9.20;;;16.70;99.90;;;;;;5073705;28;20037;-58
2022/08/10 03:41:43;;;;;;;9.35;8.10;;;16.70;99.90;;;;;;5073504;28;20467;-58
2022/08/10 03:44:12;;;;;;;13.80;9.10;;;16.60;99.90;;;;;;5073421;28;20483;-58
2022/08/10 03:46:41;;;;;;;10.25;7.97;;;16.60;99.90;;;;;;5072556;28;20045;-59
2022/08/10 03:49:08;;;;;;;14.40;8.48;;;16.60;99.90;;;;;;5073546;28;20036;-59
2022/08/10 03:51:35;;;;;;;12.23;9.20;;;16.60;99.90;;;;;;5073389;28;20036;-57
2022/08/10 03:54:02;;;;;;;10.65;8.82;;;16.60;99.90;;;;;;5073580;28;20032;-59
2022/08/10 03:56:29;;;;;;;13.40;9.50;;;16.50;99.90;;;;;;5073542;28;20174;-58
2022/08/10 03:58:55;;;;;;;10.52;8.35;;;16.60;99.90;;;;;;5073403;28;20086;-58
2022/08/10 04:01:22;;;;;;;13.00;8.73;;;16.50;99.90;;;;;;5073396;28;20479;-58
2022/08/10 04:03:47;;;;;;;17.70;10.18;;;16.50;99.90;;;;;;5073438;28;20041;-59
2022/08/10 04:06:13;;;;;;;10.70;9.60;;;16.50;99.90;;;;;;5073285;28;20044;-59
2022/08/10 04:08:42;;;;;;;12.93;9.38;;;16.60;99.90;;;;;;5073472;28;20077;-59
2022/08/10 04:11:09;;;;;;;13.18;8.82;;;16.50;99.90;;;;;;5073188;28;20543;-59
2022/08/10 04:13:35;;;;;;;9.85;8.82;;;16.40;99.90;;;;;;5073166;28;20032;-58
2022/08/10 04:16:01;;;;;;;9.70;8.20;;;16.40;99.90;;;;;;5073412;28;20048;-59
2022/08/10 04:18:27;;;;;;;13.00;8.70;;;16.50;99.90;;;;;;5073375;28;20047;-58
2022/08/10 04:21:07;;;;;;;11.10;7.63;;;16.50;99.90;;;;;;5073314;28;20040;-59
2022/08/10 04:23:37;;;;;;;10.85;7.78;;;16.50;99.90;;;;;;5073186;28;20060;-59
2022/08/10 04:26:03;;;;;;;11.25;8.27;;;16.50;99.90;;;;;;5072885;28;20500;-58
2022/08/10 04:28:30;;;;;;;9.68;7.43;;;16.40;99.90;;;;;;5073176;28;20495;-59
2022/08/10 04:30:57;;;;;;;12.73;8.65;;;16.40;99.90;;;;;;5073150;28;20534;-59
2022/08/10 04:33:25;;;;;;;9.32;7.40;;;16.50;99.90;;;;;;5072046;28;20041;-59
2022/08/10 04:35:51;;;;;;;12.90;7.88;;;16.60;99.90;;;;;;5073110;28;20054;-59
2022/08/10 04:38:18;;;;;;;12.48;8.35;;;16.50;99.90;;;;;;5073205;28;20083;-59
2022/08/10 04:40:45;;;;;;;24.85;8.90;;;16.50;99.90;;;;;;5071822;28;20445;-59
2022/08/10 04:43:11;;;;;;;11.98;8.15;;;16.50;99.90;;;;;;5072406;28;20036;-57
2022/08/10 04:45:38;;;;;;;7.75;6.72;;;16.50;99.90;;;;;;5076633;28;20588;-57
2022/08/10 04:48:03;;;;;;;9.18;7.65;;;16.60;99.90;;;;;;5076569;28;20038;-57
2022/08/10 04:50:29;;;;;;;10.23;7.50;;;16.70;99.90;;;;;;5076690;28;20033;-58
2022/08/10 04:52:55;;;;;;;10.88;7.55;;;16.70;99.90;;;;;;5075202;28;20045;-58
2022/08/10 04:55:20;;;;;;;9.70;6.40;;;16.80;99.90;;;;;;5076388;28;20403;-59
2022/08/10 04:57:46;;;;;;;9.60;8.00;;;16.70;99.90;;;;;;5076506;28;20072;-58
2022/08/10 05:00:12;;;;;;;17.00;7.78;;;16.80;99.90;;;;;;5076272;28;20051;-59
2022/08/10 05:02:38;;;;;;;9.05;7.60;;;16.90;99.90;;;;;;5076860;28;20041;-59
2022/08/10 05:05:04;;;;;;;12.90;8.43;;;16.90;99.90;;;;;;5075388;28;20044;-59
2022/08/10 05:07:30;;;;;;;13.98;8.25;;;16.90;99.90;;;;;;5076173;28;20070;-58
2022/08/10 05:09:55;;;;;;;12.82;8.77;;;17.00;99.90;;;;;;5076277;28;20037;-59
2022/08/10 05:12:22;;;;;;;11.95;9.40;;;17.00;99.90;;;;;;5076279;28;20395;-58
2022/08/10 05:14:47;;;;;;;12.25;9.25;;;17.00;99.90;;;;;;5075919;28;20047;-58
2022/08/10 05:17:13;;;;;;;12.18;8.27;;;17.00;99.90;;;;;;5075963;28;20036;-59
2022/08/10 05:19:39;;;;;;;12.40;8.70;;;16.90;99.90;;;;;;5075888;28;20040;-58
2022/08/10 05:22:06;;;;;;;9.13;7.38;;;17.00;99.90;;;;;;5074945;28;20094;-59
2022/08/10 05:24:31;;;;;;;12.57;8.57;;;17.00;99.90;;;;;;5075889;28;20094;-58
2022/08/10 05:26:57;;;;;;;10.85;8.15;;;17.10;99.90;;;;;;5076155;28;20112;-58
2022/08/10 05:29:23;;;;;;;10.10;7.35;;;17.10;99.90;;;;;;5075872;28;20098;-59
2022/08/10 05:31:49;;;;;;;8.73;7.85;;;17.30;99.90;;;;;;5075631;28;20036;-58
2022/08/10 05:34:16;;;;;;;10.80;8.88;;;17.40;99.90;;;;;;5075811;28;20041;-59
2022/08/10 05:36:43;;;;;;;12.05;8.07;;;17.40;99.90;;;;;;5074639;28;20060;-58
2022/08/10 05:39:10;;;;;;;13.38;8.32;;;17.40;99.90;;;;;;5075738;28;20040;-58
2022/08/10 05:41:36;;;;;;;9.82;7.45;;;17.40;99.90;;;;;;5075731;28;20037;-58
2022/08/10 05:44:02;;;;;;;9.85;7.38;;;17.50;99.90;;;;;;5075605;28;20091;-58
2022/08/10 05:46:28;;;;;;;9.05;7.47;;;17.60;99.90;;;;;;5075416;28;20475;-58
2022/08/10 05:48:53;;;;;;;11.13;7.65;;;17.60;99.90;;;;;;5074000;28;20060;-59
2022/08/10 05:51:20;;;;;;;10.63;7.88;;;17.80;99.90;;;;;;5075543;28;20532;-57
2022/08/10 05:53:45;;;;;;;9.27;7.72;;;17.80;99.90;;;;;;5075359;28;20037;-59
2022/08/10 05:56:11;;;;;;;8.32;6.97;;;17.90;99.90;;;;;;5075105;28;20510;-57
2022/08/10 05:58:38;;;;;;;8.35;6.90;;;18.10;99.90;;;;;;5075242;28;20044;-57
2022/08/10 06:01:11;;;;;;;9.35;6.43;;;18.10;99.90;;;;;;5075235;28;20033;-57
2022/08/10 06:03:46;;;;;;;9.27;6.72;;;18.20;99.90;;;;;;5073913;28;20044;-57
2022/08/10 06:06:14;;;;;;;8.25;6.82;;;18.30;99.90;;;;;;5075100;28;20048;-56
2022/08/10 06:08:41;;;;;;;7.68;5.72;;;18.40;99.90;;;;;;5074966;28;20062;-56
2022/08/10 06:11:10;;;;;;;11.60;6.53;;;18.50;99.90;;;;;;5075172;28;20029;-57
2022/08/10 06:16:23;;;;;;;7.05;5.25;;;18.80;99.90;;;;;;5075023;28;20052;-57
2022/08/10 06:18:51;;;;;;;10.43;5.68;;;18.90;99.90;;;;;;5075145;28;20418;-57
2022/08/10 06:21:18;;;;;;;7.30;5.38;;;19.00;99.90;;;;;;5074984;28;20040;-57
2022/08/10 06:23:44;;;;;;;6.70;5.18;;;19.10;99.90;;;;;;5074540;28;20048;-58
2022/08/10 06:26:10;;;;;;;14.13;4.93;;;19.40;99.90;;;;;;5074551;28;20479;-57
2022/08/10 06:28:39;;;;;;;8.65;5.63;;;19.50;99.90;;;;;;5074533;28;20047;-58
2022/08/10 06:31:07;;;;;;;8.23;4.50;;;19.60;99.90;;;;;;5074762;28;20032;-57
2022/08/10 06:33:36;;;;;;;7.72;4.57;;;19.90;99.90;;;;;;5074721;28;20420;-57
2022/08/10 06:36:04;;;;;;;7.03;4.38;;;20.10;99.90;;;;;;5074527;28;20048;-57
2022/08/10 06:38:32;;;;;;;10.85;4.68;;;20.20;99.90;;;;;;5073441;28;20044;-58
2022/08/10 06:41:03;;;;;;;8.90;4.72;;;20.40;99.90;;;;;;5075179;28;20051;-57
2022/08/10 06:43:31;;;;;;;9.73;4.88;;;20.60;99.90;;;;;;5074544;28;20040;-57
2022/08/10 06:46:07;;;;;;;7.80;4.50;;;20.70;99.90;;;;;;5074398;28;20097;-57
2022/08/10 06:49:00;;;;;;;6.25;3.20;;;20.90;99.90;;;;;;5074374;28;20036;-57
2022/08/10 06:51:30;;;;;;;9.23;3.75;;;21.10;99.90;;;;;;5074363;28;20040;-57
2022/08/10 06:54:00;;;;;;;8.65;4.22;;;21.20;99.90;;;;;;5074275;28;20133;-57
2022/08/10 06:56:30;;;;;;;5.97;3.30;;;21.40;99.90;;;;;;5074285;28;20131;-57
2022/08/10 06:59:17;;;;;;;4.13;2.97;;;21.80;99.90;;;;;;5074219;28;20028;-58
2022/08/10 07:01:46;;;;;;;7.55;3.10;;;22.10;99.90;;;;;;5074219;28;20033;-57
2022/08/10 07:04:26;;;;;;;5.03;2.67;;;22.60;99.90;;;;;;5073806;28;20494;-57
2022/08/10 07:06:54;;;;;;;5.93;2.75;;;22.80;99.90;;;;;;5073286;28;20483;-57
2022/08/10 07:09:20;;;;;;;6.78;2.83;;;23.30;99.90;;;;;;5073902;28;20487;-57
2022/08/10 07:11:47;;;;;;;3.20;2.20;;;23.70;99.90;;;;;;5074012;28;20036;-57
2022/08/10 07:14:16;;;;;;;5.00;2.45;;;23.90;99.90;;;;;;5074380;28;20044;-58
2022/08/10 07:16:44;;;;;;;3.90;2.15;;;24.00;99.90;;;;;;5073815;28;20494;-56
2022/08/10 07:19:11;;;;;;;4.60;1.85;;;24.20;99.90;;;;;;5073608;28;20552;-57
2022/08/10 07:21:40;;;;;;;5.20;1.80;;;24.70;99.90;;;;;;5073936;28;20094;-57
2022/08/10 07:24:08;;;;;;;;;;;25.30;99.90;;;;;;5073876;28;20105;-57
2022/08/10 07:26:38;;;;;;;3.25;2.28;;;25.30;99.90;;;;;;5073722;28;19943;-57
2022/08/10 07:29:05;;;;;;;3.58;1.75;;;25.70;99.90;;;;;;5073861;28;20051;-58
2022/08/10 07:31:31;;;;;;;6.22;1.80;;;25.40;99.90;;;;;;5072405;28;20473;-58
2022/08/10 07:33:58;;;;;;;3.00;1.77;;;26.10;99.90;;;;;;5073808;28;20123;-58
2022/08/10 07:36:27;;;;;;;5.65;2.40;;;25.60;99.90;;;;;;5073789;28;20044;-58
2022/08/10 07:38:54;;;;;;;;;;;26.20;99.90;;;;;;5074095;28;20120;-58
2022/08/10 07:41:22;;;;;;;4.15;1.67;;;26.20;99.90;;;;;;5073807;28;19934;-58
2022/08/10 07:43:50;;;;;;;4.90;1.95;;;26.60;99.90;;;;;;5073786;28;20047;-58
2022/08/10 07:46:20;;;;;;;3.53;1.63;;;26.70;99.90;;;;;;5073490;28;20053;-57
2022/08/10 07:48:53;;;;;;;5.65;1.63;;;27.30;99.90;;;;;;5073683;28;20068;-57
2022/08/10 07:51:20;;;;;;;5.22;1.83;;;27.80;99.90;;;;;;5073621;28;20051;-58
2022/08/10 07:53:51;;;;;;;3.47;1.75;;;27.40;99.90;;;;;;5073544;28;20115;-57
2022/08/10 07:56:20;;;;;;;4.22;1.73;;;27.50;99.90;;;;;;5073582;28;20115;-57
2022/08/10 07:58:49;;;;;;;5.57;1.73;;;27.90;99.90;;;;;;5073545;28;20048;-57
2022/08/10 08:01:16;;;;;;;4.22;2.13;;;28.00;99.90;;;;;;5073381;28;20048;-58
2022/08/10 08:03:43;;;;;;;9.48;1.98;;;27.80;99.90;;;;;;5073487;28;20387;-57
2022/08/10 08:06:11;;;;;;;3.75;1.50;;;28.00;99.90;;;;;;5073223;28;20491;-57
2022/08/10 08:08:38;;;;;;;6.65;1.95;;;28.50;99.90;;;;;;5073570;28;20044;-57
2022/08/10 08:11:05;;;;;;;3.92;1.88;;;28.70;99.90;;;;;;5073215;28;20115;-56
2022/08/10 08:13:32;;;;;;;10.27;2.10;;;29.00;99.90;;;;;;5073421;28;20029;-57
2022/08/10 08:16:03;;;;;;;5.28;1.63;;;29.00;99.90;;;;;;5073557;28;20128;-57
2022/08/10 08:18:31;;;;;;;2.70;1.45;;;29.40;99.90;;;;;;5074858;28;20044;-57
2022/08/10 08:20:58;;;;;;;6.68;1.60;;;29.80;99.90;;;;;;5077039;28;20040;-58
2022/08/10 08:23:27;;;;;;;4.47;1.67;;;29.40;99.90;;;;;;5076875;28;20055;-57
2022/08/10 08:25:54;;;;;;;3.83;1.50;;;29.80;99.90;;;;;;5077086;28;20106;-57
2022/08/10 08:28:20;;;;;;;2.58;1.30;;;29.70;99.90;;;;;;5076916;28;20400;-57
2022/08/10 08:30:47;;;;;;;3.33;1.58;;;29.90;99.90;;;;;;5077099;28;20063;-57
2022/08/10 08:33:14;;;;;;;4.60;1.50;;;30.00;99.90;;;;;;5076937;28;20047;-57
2022/08/10 08:35:42;;;;;;;4.53;1.35;;;30.90;99.90;;;;;;5075516;28;20060;-58
2022/08/10 08:38:09;;;;;;;4.85;1.63;;;30.90;99.90;;;;;;5076837;28;20036;-58
2022/08/10 08:40:36;;;;;;;4.40;1.20;;;31.20;99.20;;;;;;5076932;28;20037;-58
2022/08/10 08:43:08;;;;;;;4.77;1.83;;;31.30;99.60;;;;;;5076876;28;20045;-58
2022/08/10 08:45:52;;;;;;;4.45;1.38;;;31.10;98.70;;;;;;5076597;28;20040;-58
2022/08/10 08:48:30;;;;;;;5.78;1.23;;;31.40;98.70;;;;;;5076721;28;20041;-58
2022/08/10 08:51:33;;;;;;;9.98;2.38;;;32.20;98.70;;;;;;5076580;28;20540;-58
2022/08/10 08:54:13;;;;;;;3.13;1.50;;;31.80;97.20;;;;;;5076553;28;20533;-58
2022/08/10 08:56:57;;;;;;;3.67;1.70;;;31.80;97.30;;;;;;5076641;28;20111;-58
2022/08/10 08:59:35;;;;;;;4.75;1.77;;;31.70;97.40;;;;;;5076771;28;20047;-58
2022/08/10 09:02:29;;;;;;;7.50;1.90;;;32.00;97.30;;;;;;5076290;28;20086;-58
2022/08/10 09:05:27;;;;;;;9.07;1.55;;;32.60;97.20;;;;;;5076793;28;20041;-58
2022/08/10 09:07:52;;;;;;;7.15;1.77;;;32.50;96.60;;;;;;5076442;28;20037;-58
2022/08/10 09:10:41;;;;;;;4.82;1.83;;;33.10;97.10;;;;;;5076332;28;20044;-58
2022/08/10 09:13:40;;;;;;;4.63;1.80;;;33.20;96.90;;;;;;5076303;28;20048;-58
2022/08/10 09:16:26;;;;;;;6.43;1.60;;;33.60;95.40;;;;;;5076299;28;20072;-58
2022/08/10 09:19:21;;;;;;;7.07;1.45;;;33.40;95.20;;;;;;5076172;28;20046;-58
2022/08/10 09:22:05;;;;;;;7.85;2.00;;;33.40;95.50;;;;;;5076108;28;20044;-58
2022/08/10 09:24:45;;;;;;;9.50;1.77;;;33.00;95.30;;;;;;5075886;28;20051;-58
2022/08/10 09:27:19;;;;;;;17.63;2.35;;;33.10;95.50;;;;;;5076108;28;20036;-58
2022/08/10 09:29:59;;;;;;;4.72;1.70;;;33.90;95.40;;;;;;5075306;28;20121;-58
2022/08/10 09:32:42;;;;;;;5.25;1.75;;;34.30;94.80;;;;;;5076151;28;20044;-58
2022/08/10 09:35:25;;;;;;;3.65;1.58;;;34.50;94.90;;;;;;5075652;28;20040;-59
2022/08/10 09:38:13;;;;;;;7.40;1.40;;;34.80;93.90;;;;;;5075860;28;20036;-58
2022/08/10 09:40:47;;;;;;;5.18;1.30;;;34.90;94.30;;;;;;5075814;28;20162;-58
2022/08/10 09:43:32;;;;;;;5.05;1.30;;;35.30;94.20;;;;;;5075587;28;20049;-58
2022/08/10 09:46:08;;;;;;;4.20;1.30;;;35.00;92.90;;;;;;5075468;28;20085;-58
2022/08/10 09:48:59;;;;;;;5.43;1.50;;;35.50;93.90;;;;;;5075528;28;20089;-59
2022/08/10 09:51:29;;;;;;;4.85;1.33;;;35.10;93.10;;;;;;5075362;28;20051;-58
2022/08/10 09:54:19;;;;;;;2.97;1.30;;;34.40;93.60;;;;;;5075449;28;20444;-58
2022/08/10 09:56:57;;;;;;;3.25;1.50;;;35.20;93.10;;;;;;5074957;28;20136;-58
2022/08/10 10:00:01;;;;;;;6.72;1.02;;;35.40;92.80;;;;;;5075431;28;20043;-58
2022/08/10 10:02:49;;;;;;;6.35;1.40;;;35.50;93.60;;;;;;5033153;28;20054;-58
2022/08/10 10:05:26;;;;;;;2.50;1.38;;;35.40;93.00;;;;;;5033053;28;20041;-58
2022/08/10 10:08:23;;;;;;;5.72;1.67;;;35.30;92.60;;;;;;5033131;28;20053;-57
2022/08/10 10:11:01;;;;;;;4.78;1.30;;;35.60;93.20;;;;;;5033185;28;20037;-56
2022/08/10 10:14:00;;;;;;;6.57;1.63;;;35.90;93.20;;;;;;5032724;28;20515;-57
2022/08/10 10:16:56;;;;;;;6.20;1.50;;;36.00;92.10;;;;;;5032915;28;20042;-57
2022/08/10 10:20:01;;;;;;;4.25;1.77;;;36.10;92.30;;;;;;5032863;28;20561;-58
2022/08/10 10:22:56;;;;;;;4.47;1.35;;;36.40;92.20;;;;;;5032746;28;20112;-58
2022/08/10 10:25:35;;;;;;;7.45;1.25;;;36.40;92.10;;;;;;5032660;28;20569;-57
2022/08/10 10:28:15;;;;;;;5.95;1.42;;;36.50;92.00;;;;;;5032665;28;20116;-58
2022/08/10 10:31:28;;;;;;;1.73;1.05;;;36.70;91.10;;;;;;5032923;28;20040;-58
2022/08/10 10:34:26;;;;;;;1.92;0.70;;;36.40;91.50;;;;;;5000117;28;20049;-58
2022/08/10 10:36:52;;;;;;;5.68;0.90;;;36.70;90.40;;;;;;5012427;28;20073;-58
2022/08/10 10:39:23;;;;;;;4.00;1.20;;;36.70;90.40;;;;;;5012806;28;20408;-58
2022/08/10 10:42:09;;;;;;;2.33;1.00;;;36.80;90.60;;;;;;5011430;28;20045;-58
2022/08/10 10:44:50;;;;;;;3.15;0.93;;;36.70;89.50;;;;;;5012725;28;20512;-57
2022/08/10 10:47:47;;;;;;;3.42;0.90;;;36.80;89.30;;;;;;5012624;28;20440;-59
2022/08/10 10:50:21;;;;;;;4.40;1.00;;;36.20;90.00;;;;;;4996058;28;20049;-58
2022/08/10 10:53:11;;;;;;;3.67;1.30;;;36.30;90.60;;;;;;5012589;28;20042;-57
2022/08/10 10:55:46;;;;;;;2.55;0.90;;;36.40;91.00;;;;;;5012502;28;20092;-58
2022/08/10 10:58:29;;;;;;;2.35;0.65;;;36.40;90.30;;;;;;5012519;28;20556;-57
2022/08/10 11:01:06;;;;;;;6.72;1.02;;;35.50;89.70;;;;;;5012395;28;20049;-57
2022/08/10 11:03:41;;;;;;;4.53;1.00;;;35.90;90.00;;;;;;5012371;28;20049;-58
2022/08/10 11:06:28;;;;;;;12.32;0.95;;;36.40;90.30;;;;;;5012238;28;20084;-58
2022/08/10 11:09:03;;;;;;;1.98;0.93;;;36.90;89.90;;;;;;5014846;28;20049;-58
2022/08/10 11:11:33;;;;;;;3.95;0.77;;;36.60;89.10;;;;;;5074052;28;20105;-58
2022/08/10 11:14:17;;;;;;;5.28;0.90;;;35.70;88.50;;;;;;5073799;28;20518;-59
2022/08/10 11:17:07;;;;;;;4.47;0.80;;;35.70;90.30;;;;;;5074185;28;20415;-58
2022/08/10 11:19:47;;;;;;;6.18;1.45;;;35.80;90.20;;;;;;5073893;28;20502;-58
2022/08/10 11:22:43;;;;;;;3.38;0.80;;;35.90;89.60;;;;;;5073943;28;20383;-58
2022/08/10 11:25:11;;;;;;;4.70;1.00;;;36.60;89.00;;;;;;5072616;28;20048;-58
2022/08/10 11:28:02;;;;;;;3.22;0.80;;;36.80;90.10;;;;;;5073660;28;20037;-59
2022/08/10 11:30:43;;;;;;;3.63;0.90;;;36.10;89.60;;;;;;5073619;28;20094;-58
2022/08/10 11:33:23;;;;;;;10.77;1.90;;;35.90;88.60;;;;;;5073838;28;20032;-60
2022/08/10 11:35:55;;;;;;;24.73;2.38;;;36.10;87.70;;;;;;5073802;28;20040;-58
2022/08/10 11:38:33;;;;;;;11.70;1.65;;;36.40;88.40;;;;;;5071526;28;20080;-58
2022/08/10 11:41:35;;;;;;;26.95;3.05;;;36.80;88.90;;;;;;5073765;28;20040;-58
2022/08/10 11:44:11;;;;;;;1.70;0.77;;;36.00;88.70;;;;;;5073445;28;20044;-57
2022/08/10 11:46:55;;;;;;;4.90;1.15;;;35.80;86.20;;;;;;5073693;28;20033;-58
2022/08/10 11:49:39;;;;;;;3.25;0.70;;;36.10;88.40;;;;;;5073503;28;20101;-58
2022/08/10 11:52:15;;;;;;;8.25;1.60;;;36.50;86.70;;;;;;5073697;28;20037;-58
2022/08/10 11:54:52;;;;;;;2.85;0.80;;;36.50;86.90;;;;;;5077811;28;20090;-58
2022/08/10 11:57:19;;;;;;;8.20;1.20;;;36.50;87.30;;;;;;5077577;28;20041;-59
2022/08/10 11:59:57;;;;;;;2.85;0.93;;;36.70;88.50;;;;;;5077742;28;20032;-58
2022/08/10 12:02:37;;;;;;;4.75;1.10;;;36.10;86.70;;;;;;5077523;28;20574;-58
2022/08/10 12:05:30;;;;;;;3.20;1.10;;;36.30;86.30;;;;;;5077454;28;20050;-58
2022/08/10 12:07:59;;;;;;;4.18;0.82;;;36.60;86.00;;;;;;5077525;28;20040;-58
2022/08/10 12:10:26;;;;;;;4.45;1.00;;;35.90;85.70;;;;;;5077550;28;20378;-58
2022/08/10 12:13:23;;;;;;;6.22;1.08;;;36.50;86.60;;;;;;5077356;28;20044;-58
2022/08/10 12:16:08;;;;;;;1.67;0.70;;;36.40;86.50;;;;;;5055174;28;20058;-58
2022/08/10 12:19:05;;;;;;;1.13;0.75;;;36.30;86.40;;;;;;5055049;28;20083;-58
2022/08/10 12:22:00;;;;;;;1.58;1.00;;;35.90;86.30;;;;;;5055142;28;20388;-58
2022/08/10 12:24:40;;;;;;;2.90;0.80;;;35.90;86.90;;;;;;5047936;28;20045;-58
2022/08/10 12:27:15;;;;;;;2.90;0.77;;;36.20;85.70;;;;;;5054854;28;20102;-58
2022/08/10 12:29:57;;;;;;;4.70;0.80;;;36.50;85.40;;;;;;5054985;28;20040;-58
2022/08/10 12:32:50;;;;;;;4.10;0.90;;;36.70;87.10;;;;;;5054881;28;20102;-58
2022/08/10 12:35:22;;;;;;;6.15;1.00;;;37.10;86.60;;;;;;5054761;28;20098;-58
2022/08/10 12:38:21;;;;;;;1.88;0.77;;;37.10;86.60;;;;;;5054722;28;20503;-59
2022/08/10 12:40:59;;;;;;;5.30;0.63;;;36.50;86.40;;;;;;5054845;28;20522;-59
2022/08/10 12:43:28;;;;;;;2.58;0.80;;;35.70;85.90;;;;;;5037859;28;20057;-58
2022/08/10 12:45:56;;;;;;;2.78;0.90;;;35.90;85.50;;;;;;5054614;28;20053;-59
2022/08/10 12:48:29;;;;;;;2.22;0.73;;;36.20;85.40;;;;;;5054592;28;20194;-58
2022/08/10 12:51:08;;;;;;;2.05;0.80;;;35.40;85.50;;;;;;5054688;28;20051;-59
2022/08/10 12:54:01;;;;;;;3.72;0.90;;;34.70;85.90;;;;;;5076597;28;20517;-59
2022/08/10 12:56:33;;;;;;;1.33;0.80;;;35.20;85.80;;;;;;5076548;28;20090;-59
2022/08/10 12:58:59;;;;;;;1.52;0.70;;;35.30;86.30;;;;;;5076487;28;20051;-58
2022/08/10 13:01:29;;;;;;;1.90;0.63;;;35.50;86.70;;;;;;5076550;28;20049;-59
2022/08/10 13:03:59;;;;;;;2.08;1.08;;;35.20;86.40;;;;;;5075338;28;20039;-59
2022/08/10 13:06:26;;;;;;;2.42;1.02;;;35.30;85.90;;;;;;5076694;28;20440;-59
2022/08/10 13:09:09;;;;;;;1.60;0.70;;;35.40;88.50;;;;;;5076455;28;20119;-58
2022/08/10 13:11:52;;;;;;;2.42;0.60;;;35.40;85.90;;;;;;5075308;28;20024;-58
2022/08/10 13:14:22;;;;;;;5.68;0.98;;;35.30;85.70;;;;;;5076178;28;20044;-58
2022/08/10 13:16:50;;;;;;;1.08;0.65;;;34.70;86.70;;;;;;5076307;28;20045;-58
2022/08/10 13:19:20;;;;;;;2.88;0.80;;;34.40;87.60;;;;;;5076032;28;20487;-58